Sopchoppy, FL

7:46 AM EST on January 18, 2017 (GMT -0500)
Bald Point | | Change Station
Active Advisory: Dense Fog Advisory

Elev 40 ft 29.92 °N, 84.33 °W | Updated 0 second ago

Overcast
Overcast
59.5 °F
Feels Like 59.5 °F
N
4.0
Wind Variable Wind from WNW
Gusts 4.0 mph

Today
High -- | Low -- °F
--% Chance of Precip.
Yesterday
High -- | Low -- °F
Precip. -- in
Pressure 30.17 in
Visibility 0.2 miles
Clouds
Dew Point 59 °F
Humidity 98%
Rainfall 0.02 in
Snow Depth Not available.
7:34 AM 6:03 PM
Waning Gibbous, 63% visible
SPECI KTLH 181237Z 00000KT 1/4SM FG VV002 16/16 A3017 RMK AO2 T01560156
Pressure 30.17 in
Visibility 0.2 miles
Clouds
Dew Point 59 °F
Humidity 98%
Rainfall 0.02 in
Snow Depth Not available.
7:34 AM 6:03 PM
Waning Gibbous, 63% visible
SPECI KTLH 181237Z 00000KT 1/4SM FG VV002 16/16 A3017 RMK AO2 T01560156

Get Your Daily Forecast Email!

Thanks for signing up!

Be on the lookout for a verification email in your inbox.

You'll start receiving the daily forecast at 8 AM.

×

10-Day Weather Forecast

Almanac

Astronomy

Jan. 18, 2017 Rise Set
Actual Time
Civil Twilight
Nautical Twilight
Astronomical Twilight
Moon
Length of Visible Light
Length of Day
Tomorrow will be .
, % of the Moon is Illuminated

Today's Extremes

State Highs State Lows

Community

WunderPhotos

Upload Photos

1,962,540 photos uploaded!

WunderBlog® & News

Nearby

Air Quality

  Air Quality AQ Index Pollutant
Not available.

Snow Depth

Station Depth Elevation

Earthquake Activity

City Distance Mag. Time & Date
Minimum magnitude displayed is 2.5.

Coastal Water Temperatures

Place Temperature

Stations

Nearby Weather Stations

Station Location Temp. Windchill Dew Point Humidity Wind Precip. Elev Updated Type
                   

Watches & Warnings

Dense Fog Advisory
Issued: 4:22 AM CST Jan. 18, 2017 – National Weather Service

... Dense fog advisory remains in effect until 9 am EST /8 am CST/
this morning...

* visibility... a quarter of a mile or less.

Precautionary/preparedness actions...

A dense fog advisory means visibilities will frequently be
reduced to less than one quarter mile. If driving... slow down...
use your headlights... and leave plenty of distance ahead of you.